aviador You're here:

EGUN Decoded Metar

MILDENHALL in ENGLAND
Report Time2017-06-25 17:58:00
UTC Time2017-06-25 19:05:00
Flight Rules Old
Wind310° at 10 kt
W.Decomp.*RWY 29: 9.3 kt HW 3.6 kt RCW
W.Rank310° ranks 23
Current wind is above 310° avg. (7.9)
Visibility9999 m
Phenomena:N/A
Clouds:Broken 037 Hf
Overcast 046 Hf
Expected CloudBase > 1,200 ft AGL from Temp-Dew spread
Ceiling3,700 ft
Temp19°C (ISA +4)
Dew Point16°C (83% RH)
AAT17.4°C
QNH1010 hPa
Density Alt853 ft
Elevation33 ft
Report Wrong Elevation
Raw Report
METAR EGUN 251758Z AUTO 31010KT 9999 BKN037 OVC046 19/16 A2982 RMK
AO2 RAB24E34 SLP101 P0000 60000 T01930155 10211 20184 53004=

Extra information for EGUN:More info

Metar Taf Metar & Taf Last 4 Metars F.Rules Stats Wind Profile Meteogram Temp Stats Airport Information Weather charts Add Link Nearby VenuesMetar ALERT Operation Metar Decoded Social comments